Time;durP1;ratioP1;P1;durP2;ratioP2;P2;SDS_P1;SDS_P2;PMS_P1;PMS_P2;Temp;Humidity;BMP_temperature;BMP_pressure;BME280_temperature;BME280_humidity;BME280_pressure;Samples;Min_cycle;Max_cycle;Signal;HPM_P1;HPM_P2
2023/05/13 00:03:12;;;;;;;7.80;4.05;;;;;;;12.67;71.79;100800.91;10501816;28;20059;-71
2023/05/13 00:08:13;;;;;;;9.65;4.07;;;;;;;12.59;72.58;100790.25;10501707;28;20032;-70
2023/05/13 00:13:13;;;;;;;9.90;3.78;;;;;;;12.60;73.12;100805.25;10501212;28;20045;-71
2023/05/13 00:18:14;;;;;;;7.70;4.22;;;;;;;12.46;73.29;100774.78;10499466;28;20094;-71
2023/05/13 00:23:15;;;;;;;5.82;3.70;;;;;;;12.15;72.66;100716.09;10500726;28;20040;-70
2023/05/13 00:28:16;;;;;;;6.10;3.80;;;;;;;12.68;72.99;100807.06;10500087;28;20120;-71
2023/05/13 00:33:17;;;;;;;7.20;4.05;;;;;;;12.41;73.18;100774.47;10501898;28;20450;-70
2023/05/13 00:38:17;;;;;;;7.15;4.10;;;;;;;12.44;73.57;100776.78;10500463;28;20044;-70
2023/05/13 00:43:18;;;;;;;7.93;4.00;;;;;;;12.46;73.95;100789.97;10499921;28;20040;-71
2023/05/13 00:48:19;;;;;;;12.38;4.50;;;;;;;12.52;74.03;100803.44;10499387;28;20036;-71
2023/05/13 00:53:21;;;;;;;7.20;4.47;;;;;;;12.43;74.56;100790.28;10500219;28;20072;-71
2023/05/13 00:58:21;;;;;;;10.23;4.35;;;;;;;12.41;74.43;100779.78;10498963;28;20428;-71
2023/05/13 01:03:41;;;;;;;10.63;4.80;;;;;;;12.60;74.18;100789.28;10498749;28;20094;-71
2023/05/13 01:09:00;;;;;;;11.75;5.22;;;;;;;12.29;72.30;100695.91;10499223;28;20469;-71
2023/05/13 01:14:08;;;;;;;17.38;5.10;;;;;;;12.92;71.80;100774.16;10498953;28;20492;-71
2023/05/13 01:19:25;;;;;;;6.50;4.53;;;;;;;13.05;69.79;100757.63;10498900;28;20514;-70
2023/05/13 01:24:25;;;;;;;30.95;5.47;;;;;;;13.02;70.34;100742.78;10498493;28;20040;-70
2023/05/13 01:29:27;;;;;;;8.25;4.57;;;;;;;12.95;70.58;100732.00;10498210;28;20044;-70
2023/05/13 01:34:28;;;;;;;10.40;4.50;;;;;;;12.95;71.46;100750.66;10498457;28;20060;-70
2023/05/13 01:39:30;;;;;;;7.35;4.22;;;;;;;12.60;71.91;100717.31;10497334;28;20062;-71
2023/05/13 01:44:31;;;;;;;10.20;4.53;;;;;;;12.72;72.36;100752.41;10497548;28;20067;-70
2023/05/13 01:49:32;;;;;;;8.20;4.20;;;;;;;12.21;71.91;100683.44;10497668;28;20094;-71
2023/05/13 01:54:33;;;;;;;13.65;4.28;;;;;;;12.54;71.89;100718.00;10497806;28;20534;-70
2023/05/13 01:59:33;;;;;;;86.90;7.05;;;;;;;12.40;71.57;100690.22;10497792;28;20063;-71
2023/05/13 02:04:34;;;;;;;13.80;4.20;;;;;;;12.60;71.22;100735.97;10496335;28;20071;-71
2023/05/13 02:09:36;;;;;;;10.55;4.13;;;;;;;12.66;71.06;100769.94;10495128;28;20048;-71
2023/05/13 02:14:37;;;;;;;12.77;4.72;;;;;;;12.64;71.32;100761.25;10496470;28;20040;-71
2023/05/13 02:19:38;;;;;;;12.40;4.30;;;;;;;12.53;71.32;100737.63;10496901;28;20404;-71
2023/05/13 02:24:39;;;;;;;13.93;4.60;;;;;;;12.65;71.36;100751.44;10496425;28;20044;-70
2023/05/13 02:29:40;;;;;;;10.30;4.90;;;;;;;12.55;71.62;100747.13;10495736;28;20127;-70
2023/05/13 02:34:40;;;;;;;14.00;5.53;;;;;;;12.71;71.76;100772.06;10496596;28;20492;-70
2023/05/13 02:39:41;;;;;;;14.57;5.60;;;;;;;12.36;71.76;100701.41;10496905;28;20392;-71
2023/05/13 02:44:42;;;;;;;9.57;5.25;;;;;;;12.90;71.76;100773.53;10495711;28;20139;-71
2023/05/13 02:49:43;;;;;;;14.85;5.38;;;;;;;12.78;71.75;100741.06;10495898;28;20036;-70
2023/05/13 02:54:44;;;;;;;10.80;5.68;;;;;;;13.02;72.08;100766.78;10495003;28;20037;-71
2023/05/13 02:59:44;;;;;;;14.88;5.03;;;;;;;13.18;71.62;100777.38;10496311;28;20052;-70
2023/05/13 03:04:46;;;;;;;11.98;6.25;;;;;;;13.29;71.37;100775.38;10495117;28;20040;-71
2023/05/13 03:09:47;;;;;;;9.82;5.40;;;;;;;13.32;70.38;100770.50;10493625;28;20039;-71
2023/05/13 03:14:47;;;;;;;17.25;5.95;;;;;;;13.01;70.07;100698.44;10494923;28;20044;-71
2023/05/13 03:19:48;;;;;;;11.30;6.13;;;;;;;13.38;69.51;100793.00;10498767;28;20033;-70
2023/05/13 03:24:49;;;;;;;13.27;5.78;;;;;;;13.26;68.95;100770.38;10503022;28;20052;-70
2023/05/13 03:29:50;;;;;;;11.70;5.85;;;;;;;13.52;68.63;100810.09;10501309;28;20044;-70
2023/05/13 03:34:51;;;;;;;21.48;6.40;;;;;;;13.63;68.05;100807.00;10502360;28;20123;-71
2023/05/13 03:39:51;;;;;;;15.75;5.43;;;;;;;13.69;67.47;100796.44;10503109;28;20044;-70
2023/05/13 03:44:52;;;;;;;8.05;4.50;;;;;;;13.65;67.36;100780.97;10502142;28;20045;-70
2023/05/13 03:49:53;;;;;;;10.57;5.43;;;;;;;13.87;66.90;100806.00;10500341;28;20041;-70
2023/05/13 03:54:53;;;;;;;12.98;5.10;;;;;;;13.93;66.78;100811.47;10502251;28;20040;-70
2023/05/13 03:59:54;;;;;;;12.07;5.15;;;;;;;13.84;66.69;100795.69;10502200;28;20109;-70
2023/05/13 04:04:55;;;;;;;21.70;6.20;;;;;;;14.05;66.82;100824.41;10488041;28;20044;-71
2023/05/13 04:09:56;;;;;;;14.00;6.53;;;;;;;14.24;66.25;100817.75;10480551;28;20040;-71
2023/05/13 04:14:56;;;;;;;28.30;8.30;;;;;;;14.38;65.43;100798.25;10472821;28;20045;-71
2023/05/13 04:19:57;;;;;;;14.60;6.78;;;;;;;14.53;64.38;100800.97;10475424;28;20037;-71
2023/05/13 04:24:58;;;;;;;20.60;6.85;;;;;;;14.70;62.94;100813.16;10472542;28;20124;-70
2023/05/13 04:29:59;;;;;;;27.13;6.20;;;;;;;14.61;62.28;100792.88;10476830;28;20036;-70
2023/05/13 04:35:00;;;;;;;10.20;5.57;;;;;;;14.30;60.88;100715.50;10470152;28;20072;-70
2023/05/13 04:40:00;;;;;;;18.48;5.90;;;;;;;15.12;60.54;100808.19;10458771;28;20044;-70
2023/05/13 04:45:01;;;;;;;15.48;7.47;;;;;;;15.09;60.32;100793.31;10457663;28;20041;-70
2023/05/13 04:50:03;;;;;;;23.23;12.80;;;;;;;15.20;59.89;100818.78;10458269;28;20127;-70
2023/05/13 04:55:04;;;;;;;29.42;12.98;;;;;;;15.22;59.88;100820.22;10457965;28;20043;-70
2023/05/13 05:00:07;;;;;;;21.08;11.38;;;;;;;15.28;59.74;100811.44;10477834;28;20048;-70
2023/05/13 05:05:08;;;;;;;19.83;7.20;;;;;;;15.40;59.25;100809.13;10476082;28;20084;-70
2023/05/13 05:10:09;;;;;;;12.80;5.40;;;;;;;15.46;59.43;100797.66;10499979;28;20040;-70
2023/05/13 05:15:14;;;;;;;12.88;5.28;;;;;;;15.16;58.33;100716.63;10499004;28;20497;-70
2023/05/13 05:20:15;;;;;;;13.55;5.75;;;;;;;15.74;57.57;100811.19;10467746;28;20071;-70
2023/05/13 05:25:16;;;;;;;11.85;6.43;;;;;;;15.79;56.95;100813.28;10487551;28;20048;-70
2023/05/13 05:30:16;;;;;;;8.85;6.20;;;;;;;15.67;57.61;100799.56;10466369;28;20094;-70
2023/05/13 05:35:18;;;;;;;18.30;5.40;;;;;;;15.58;57.88;100779.25;10457250;28;20131;-70
2023/05/13 05:40:20;;;;;;;15.60;5.60;;;;;;;15.80;57.83;100790.84;10456360;28;20099;-71
2023/05/13 05:45:20;;;;;;;14.55;5.95;;;;;;;15.93;57.77;100779.44;10454698;28;20033;-70
2023/05/13 05:50:21;;;;;;;11.00;5.60;;;;;;;16.05;57.13;100787.78;10456107;28;20157;-70
2023/05/13 05:55:22;;;;;;;10.52;5.20;;;;;;;16.00;56.03;100793.69;10455405;28;20497;-71
2023/05/13 06:00:23;;;;;;;7.93;4.43;;;;;;;15.85;56.01;100779.56;10469574;28;20045;-71
2023/05/13 06:05:24;;;;;;;10.60;4.70;;;;;;;15.90;55.77;100790.53;10466373;28;20048;-72
2023/05/13 06:10:25;;;;;;;11.00;4.43;;;;;;;16.06;56.16;100798.28;10484419;28;20045;-72
2023/05/13 06:15:25;;;;;;;6.65;3.75;;;;;;;15.27;55.78;100651.06;10468923;28;20040;-73
2023/05/13 06:20:26;;;;;;;9.13;4.35;;;;;;;16.09;55.57;100781.81;10480023;28;20045;-72
2023/05/13 06:25:27;;;;;;;7.38;4.50;;;;;;;16.19;54.89;100802.94;10485881;28;20064;-72
2023/05/13 06:30:28;;;;;;;14.65;4.47;;;;;;;16.15;54.73;100807.03;10485735;28;20055;-72
2023/05/13 06:35:29;;;;;;;11.32;4.07;;;;;;;15.83;55.27;100747.59;10454429;28;20497;-72
2023/05/13 06:40:29;;;;;;;13.40;4.43;;;;;;;15.79;55.37;100743.63;10453395;28;20098;-72
2023/05/13 06:45:30;;;;;;;10.45;4.13;;;;;;;16.31;55.20;100817.50;10454277;28;20124;-72
2023/05/13 06:50:31;;;;;;;12.13;4.10;;;;;;;16.35;55.22;100799.97;10453848;28;20424;-73
2023/05/13 06:55:34;;;;;;;15.18;6.45;;;;;;;16.39;55.22;100806.63;10464402;28;20053;-72
2023/05/13 07:00:37;;;;;;;21.23;11.67;;;;;;;16.39;54.67;100806.63;10467034;28;20044;-72
2023/05/13 07:05:38;;;;;;;10.70;4.80;;;;;;;16.53;54.43;100807.53;10467908;28;20041;-74
2023/05/13 07:10:39;;;;;;;10.77;4.43;;;;;;;16.58;54.30;100806.97;10477395;28;20418;-75
2023/05/13 07:15:40;;;;;;;10.23;4.07;;;;;;;16.14;54.55;100723.13;10483791;28;20127;-76
2023/05/13 07:20:41;;;;;;;7.38;4.07;;;;;;;16.47;54.62;100775.31;10483996;28;20044;-74
2023/05/13 07:25:41;;;;;;;10.20;5.03;;;;;;;16.48;54.72;100760.88;10482951;28;20099;-77
2023/05/13 07:30:42;;;;;;;10.90;5.22;;;;;;;16.44;55.14;100758.59;10424897;28;20037;-72
2023/05/13 07:35:43;;;;;;;8.65;4.50;;;;;;;16.55;55.66;100793.94;10423170;28;20460;-73
2023/05/13 07:40:44;;;;;;;9.07;4.93;;;;;;;16.48;56.66;100790.38;10388949;28;20525;-74
2023/05/13 07:45:44;;;;;;;10.80;4.03;;;;;;;16.55;56.73;100778.69;10407799;28;20668;-73
2023/05/13 07:50:45;;;;;;;6.43;4.28;;;;;;;16.72;56.52;100765.78;10387331;28;20063;-74
2023/05/13 07:55:46;;;;;;;7.20;4.07;;;;;;;16.85;56.23;100744.41;10384293;28;20057;-75
2023/05/13 08:00:50;;;;;;;9.20;4.30;;;;;;;17.20;55.83;100773.88;10384960;28;20049;-74
2023/05/13 08:05:51;;;;;;;10.27;4.35;;;;;;;17.23;54.50;100743.94;10380617;28;20052;-75
2023/05/13 08:10:52;;;;;;;11.77;4.38;;;;;;;17.57;54.00;100769.84;10378064;28;20497;-76
2023/05/13 08:15:52;;;;;;;32.80;5.07;;;;;;;17.61;52.81;100766.75;10377840;28;20402;-75
2023/05/13 08:20:53;;;;;;;6.68;4.32;;;;;;;17.23;51.23;100689.41;10377638;28;20041;-74
2023/05/13 08:25:54;;;;;;;10.73;3.92;;;;;;;17.43;51.11;100682.22;10377695;28;20136;-74
2023/05/13 08:31:01;;;;;;;7.50;3.90;;;;;;;18.16;50.85;100751.31;10377755;28;20042;-73
2023/05/13 08:36:02;;;;;;;5.80;4.25;;;;;;;18.11;50.04;100753.81;10377185;28;20034;-74
2023/05/13 08:41:05;;;;;;;11.70;3.90;;;;;;;17.88;50.53;100746.97;10377639;28;20049;-74
2023/05/13 08:46:08;;;;;;;13.00;4.05;;;;;;;18.06;49.99;100751.72;10376555;28;20405;-75
2023/05/13 08:51:09;;;;;;;20.42;3.60;;;;;;;18.34;50.10;100742.63;10376157;28;20046;-74
2023/05/13 08:56:11;;;;;;;16.60;4.10;;;;;;;18.55;49.73;100734.28;10376306;28;20116;-74
2023/05/13 09:01:12;;;;;;;6.97;4.05;;;;;;;18.49;48.81;100721.69;10375554;28;20457;-75
2023/05/13 09:06:13;;;;;;;16.55;4.82;;;;;;;17.85;49.37;100660.56;10376079;28;20132;-76
2023/05/13 09:11:14;;;;;;;17.95;4.78;;;;;;;17.52;49.32;100666.72;10375443;28;20148;-75
2023/05/13 09:16:15;;;;;;;10.80;3.83;;;;;;;18.03;50.05;100733.31;10374421;28;20402;-74
2023/05/13 09:21:28;;;;;;;33.05;5.90;;;;;;;17.89;49.02;100723.59;10375350;28;20099;-75
2023/05/13 09:26:29;;;;;;;8.82;3.85;;;;;;;17.97;49.98;100713.47;10375328;28;20037;-74
2023/05/13 09:31:33;;;;;;;8.10;3.70;;;;;;;17.62;49.72;100647.50;10375305;28;20038;-74
2023/05/13 09:36:34;;;;;;;6.13;3.55;;;;;;;17.95;49.37;100715.56;10373227;28;20117;-74
2023/05/13 09:41:34;;;;;;;8.52;3.83;;;;;;;17.94;50.04;100684.31;10374942;28;20128;-74
2023/05/13 09:46:35;;;;;;;8.60;3.90;;;;;;;18.36;49.51;100705.56;10398518;28;20053;-73
2023/05/13 09:51:37;;;;;;;31.08;5.20;;;;;;;18.53;50.26;100697.88;10409855;28;20041;-73
2023/05/13 09:56:37;;;;;;;18.67;8.00;;;;;;;18.66;49.28;100693.25;10414854;28;20057;-73
2023/05/13 10:01:40;;;;;;;6.90;4.20;;;;;;;18.66;48.75;100689.75;10413906;28;20482;-73
2023/05/13 10:06:41;;;;;;;9.77;4.40;;;;;;;18.53;49.25;100663.72;10414512;28;20037;-75
2023/05/13 10:11:47;;;;;;;19.35;10.77;;;;;;;18.56;49.99;100684.81;10415425;28;20037;-74
2023/05/13 10:16:49;;;;;;;10.02;5.65;;;;;;;18.21;49.41;100644.78;10414769;28;20060;-73
2023/05/13 10:21:51;;;;;;;8.43;4.50;;;;;;;18.03;49.93;100607.78;10398771;28;20074;-73
2023/05/13 10:26:52;;;;;;;8.85;4.00;;;;;;;18.36;49.01;100675.97;10413896;28;20136;-73
2023/05/13 10:31:54;;;;;;;9.88;3.60;;;;;;;18.45;48.87;100693.53;10412981;28;20038;-72
2023/05/13 10:37:17;;;;;;;10.13;4.00;;;;;;;18.39;47.14;100694.38;10413219;28;20033;-75
2023/05/13 10:42:24;;;;;;;18.20;10.00;;;;;;;18.41;47.74;100690.44;10413548;28;20116;-75
2023/05/13 10:47:26;;;;;;;21.90;5.40;;;;;;;18.42;48.73;100693.97;10413290;28;20033;-72
2023/05/13 10:52:42;;;;;;;5.60;3.85;;;;;;;18.48;48.45;100685.03;10413015;28;20037;-72
2023/05/13 10:58:12;;;;;;;74.22;8.63;;;;;;;18.01;48.06;100606.38;10413239;28;20064;-72
2023/05/13 11:03:26;;;;;;;9.88;3.88;;;;;;;18.31;48.00;100616.59;10413041;28;20051;-73
2023/05/13 11:08:40;;;;;;;41.20;5.18;;;;;;;18.80;48.03;100686.00;10412302;28;20033;-73
2023/05/13 11:13:41;;;;;;;;;;;;;;;18.96;48.70;100691.94;10412105;28;20608;-72
2023/05/13 11:18:41;;;;;;;9.75;3.75;;;;;;;18.60;50.33;100688.72;10413104;28;19920;-72
2023/05/13 11:23:52;;;;;;;9.32;4.05;;;;;;;18.44;51.26;100689.19;10411361;28;20087;-72
2023/05/13 11:29:04;;;;;;;13.80;4.60;;;;;;;17.94;52.91;100689.69;10411909;28;20072;-72
2023/05/13 11:34:13;;;;;;;22.42;4.93;;;;;;;17.57;55.00;100677.69;10411825;28;20590;-72
2023/05/13 11:39:19;;;;;;;7.80;3.90;;;;;;;17.42;57.59;100691.31;10413739;28;20409;-72
2023/05/13 11:44:21;;;;;;;8.18;4.30;;;;;;;17.18;57.89;100702.63;10420271;28;20437;-72
2023/05/13 11:49:48;;;;;;;7.45;3.97;;;;;;;17.17;61.39;100688.38;10414802;28;20042;-72
2023/05/13 11:54:54;;;;;;;21.33;4.47;;;;;;;16.97;59.92;100688.31;10393510;28;20136;-73
2023/05/13 11:59:54;;;;;;;7.97;4.05;;;;;;;16.53;59.38;100610.94;10419093;28;20152;-72
2023/05/13 12:04:59;;;;;;;8.20;4.10;;;;;;;16.73;60.32;100637.84;10418636;28;20136;-72
2023/05/13 12:10:01;;;;;;;5.88;3.95;;;;;;;16.95;60.97;100650.09;10418862;28;20068;-71
2023/05/13 12:15:05;;;;;;;6.93;3.92;;;;;;;16.74;61.33;100623.38;10418267;28;20421;-71
2023/05/13 12:20:17;;;;;;;7.45;4.00;;;;;;;17.05;62.55;100660.44;10416951;28;20038;-71
2023/05/13 12:25:45;;;;;;;6.60;4.07;;;;;;;17.30;61.49;100674.97;10418108;28;20512;-72
2023/05/13 12:30:59;;;;;;;8.93;4.03;;;;;;;17.25;61.48;100673.91;10418319;28;20452;-71
2023/05/13 12:36:20;;;;;;;8.85;4.00;;;;;;;17.24;59.77;100666.91;10416183;28;20053;-72
2023/05/13 12:41:21;;;;;;;7.82;4.10;;;;;;;17.05;60.25;100655.06;10411242;28;20136;-72
2023/05/13 12:46:23;;;;;;;11.90;4.80;;;;;;;17.06;59.88;100660.25;10378576;28;20046;-72
2023/05/13 12:51:24;;;;;;;6.88;4.00;;;;;;;17.11;59.50;100668.53;10375283;28;20526;-71
2023/05/13 12:56:25;;;;;;;13.95;4.32;;;;;;;16.96;58.61;100627.63;10376949;28;20057;-71
2023/05/13 13:01:26;;;;;;;48.03;5.55;;;;;;;17.20;58.66;100663.81;10375531;28;20045;-71
2023/05/13 13:06:27;;;;;;;17.42;4.45;;;;;;;17.15;57.96;100666.28;10375285;28;20046;-71
2023/05/13 13:11:28;;;;;;;6.60;4.20;;;;;;;16.88;56.90;100611.72;10376370;28;20183;-71
2023/05/13 13:16:29;;;;;;;10.65;4.38;;;;;;;17.14;56.18;100653.03;10375548;28;20042;-71
2023/05/13 13:21:30;;;;;;;18.92;4.93;;;;;;;16.70;56.28;100592.66;10375157;28;20050;-71
2023/05/13 13:26:31;;;;;;;7.00;3.97;;;;;;;16.82;55.76;100620.56;10375187;28;20041;-71
2023/05/13 13:31:32;;;;;;;12.77;5.07;;;;;;;16.86;56.72;100654.81;10374771;28;20038;-72
2023/05/13 13:36:33;;;;;;;17.60;4.63;;;;;;;16.64;57.24;100656.78;10374951;28;20056;-71
2023/05/13 13:41:34;;;;;;;7.93;5.38;;;;;;;15.96;58.08;100576.22;10374865;28;20074;-72
2023/05/13 13:46:34;;;;;;;19.90;5.03;;;;;;;16.33;59.44;100648.38;10374514;28;20073;-72
2023/05/13 13:51:35;;;;;;;15.98;4.47;;;;;;;15.82;60.24;100587.88;10373996;28;20041;-72
2023/05/13 13:56:37;;;;;;;8.57;3.50;;;;;;;16.04;59.27;100657.50;10373995;28;20054;-71
2023/05/13 14:01:39;;;;;;;12.20;3.80;;;;;;;15.86;58.73;100626.66;10373245;28;20103;-72
2023/05/13 14:06:41;;;;;;;38.83;4.68;;;;;;;15.91;59.14;100634.97;10373606;28;20076;-72
2023/05/13 14:11:42;;;;;;;13.65;3.67;;;;;;;15.95;57.84;100636.22;10372936;28;20038;-72
2023/05/13 14:16:42;;;;;;;6.07;3.22;;;;;;;15.78;57.00;100615.28;10373377;28;20049;-71
2023/05/13 14:21:47;;;;;;;14.85;3.63;;;;;;;15.90;57.59;100654.72;10382513;28;20485;-72
2023/05/13 14:26:48;;;;;;;17.05;4.35;;;;;;;15.82;57.59;100657.53;10373479;28;20138;-72
2023/05/13 14:31:48;;;;;;;18.33;4.85;;;;;;;15.81;57.90;100660.41;10372517;28;20494;-72
2023/05/13 14:36:50;;;;;;;24.88;4.65;;;;;;;15.61;58.25;100642.28;10372058;28;20049;-72
2023/05/13 14:41:51;;;;;;;7.20;3.38;;;;;;;15.23;58.26;100589.06;10383366;28;20383;-72
2023/05/13 14:46:51;;;;;;;25.77;3.63;;;;;;;15.61;58.17;100654.88;10372190;28;20041;-72
2023/05/13 14:51:52;;;;;;;6.55;2.90;;;;;;;15.51;57.72;100664.06;10371779;28;20037;-72
2023/05/13 14:56:53;;;;;;;6.00;2.40;;;;;;;15.42;57.55;100657.19;10372445;28;20057;-73
2023/05/13 15:01:54;;;;;;;8.98;3.15;;;;;;;15.13;57.84;100620.66;10374185;28;20053;-74
2023/05/13 15:06:55;;;;;;;9.60;4.20;;;;;;;15.26;58.48;100668.16;10381114;28;20038;-72
2023/05/13 15:11:56;;;;;;;15.10;6.15;;;;;;;14.74;58.87;100602.34;10372053;28;20045;-72
2023/05/13 15:16:56;;;;;;;39.75;17.83;;;;;;;15.04;59.19;100676.13;10378167;28;20034;-72
2023/05/13 15:21:57;;;;;;;33.50;16.65;;;;;;;14.92;60.27;100666.94;10379378;28;20049;-72
2023/05/13 15:27:00;;;;;;;20.67;10.25;;;;;;;14.86;61.14;100683.75;10380123;28;20037;-71
2023/05/13 15:32:01;;;;;;;10.48;4.15;;;;;;;14.58;61.16;100655.03;10379098;28;20085;-72
2023/05/13 15:37:01;;;;;;;7.63;3.15;;;;;;;14.27;61.04;100616.97;10378077;28;20076;-71
2023/05/13 15:42:02;;;;;;;5.22;2.67;;;;;;;14.61;61.67;100685.91;10379034;28;20044;-73
2023/05/13 15:47:04;;;;;;;4.97;2.45;;;;;;;14.07;61.73;100625.53;10414277;28;20386;-72
2023/05/13 15:52:05;;;;;;;11.90;2.70;;;;;;;13.88;61.52;100607.38;10404472;28;20077;-73
2023/05/13 15:57:06;;;;;;;10.60;3.08;;;;;;;14.27;61.31;100683.75;10419097;28;20081;-72
2023/05/13 16:02:06;;;;;;;10.63;2.55;;;;;;;14.30;61.53;100694.13;10418601;28;20100;-73
2023/05/13 16:07:09;;;;;;;3.60;2.03;;;;;;;14.09;63.28;100690.31;10419434;28;20052;-72
2023/05/13 16:12:10;;;;;;;4.63;2.30;;;;;;;13.76;64.62;100659.56;10418923;28;20041;-79
2023/05/13 16:17:11;;;;;;;5.70;2.10;;;;;;;13.16;64.97;100590.00;10418758;28;20106;-72
2023/05/13 16:22:25;;;;;;;3.20;1.95;;;;;;;13.73;67.99;100694.63;10408286;28;20382;-72
2023/05/13 16:27:28;;;;;;;3.95;2.20;;;;;;;13.52;66.13;100690.81;10376949;28;20045;-72
2023/05/13 16:32:29;;;;;;;6.97;2.15;;;;;;;13.50;66.74;100679.50;10388856;28;20044;-72
2023/05/13 16:37:30;;;;;;;3.05;1.70;;;;;;;13.54;66.88;100680.78;10388455;28;20037;-73
2023/05/13 16:42:31;;;;;;;5.95;2.08;;;;;;;13.18;67.30;100621.81;10376832;28;20494;-72
2023/05/13 16:47:32;;;;;;;4.97;1.90;;;;;;;13.46;67.56;100672.84;10387675;28;20042;-72
2023/05/13 16:52:33;;;;;;;4.05;1.98;;;;;;;13.22;67.87;100634.66;10387411;28;20072;-71
2023/05/13 16:57:33;;;;;;;5.28;2.45;;;;;;;13.23;68.55;100643.47;10391497;28;20092;-72
2023/05/13 17:02:34;;;;;;;5.35;2.58;;;;;;;13.61;69.47;100716.44;10376468;28;20092;-73
2023/05/13 17:07:35;;;;;;;4.70;2.80;;;;;;;13.65;69.89;100739.09;10396962;28;20048;-73
2023/05/13 17:12:36;;;;;;;5.18;2.47;;;;;;;13.48;70.12;100730.38;10413486;28;20045;-72
2023/05/13 17:17:37;;;;;;;6.00;2.03;;;;;;;13.41;70.16;100748.09;10404494;28;20073;-72
2023/05/13 17:22:38;;;;;;;5.47;1.95;;;;;;;13.34;69.64;100743.63;10374871;28;20126;-72
2023/05/13 17:27:39;;;;;;;5.60;2.38;;;;;;;13.24;69.94;100736.66;10391369;28;20040;-73
2023/05/13 17:32:39;;;;;;;4.30;2.30;;;;;;;13.22;70.26;100741.34;10391088;28;20132;-73
2023/05/13 17:37:40;;;;;;;6.32;3.50;;;;;;;13.12;71.21;100750.56;10373396;28;20045;-72
2023/05/13 17:42:41;;;;;;;6.43;2.60;;;;;;;13.16;72.00;100763.41;10375147;28;20045;-72
2023/05/13 17:47:42;;;;;;;6.32;2.90;;;;;;;12.69;72.53;100686.13;10374545;28;20050;-71
2023/05/13 17:52:43;;;;;;;5.15;3.10;;;;;;;12.62;73.87;100674.47;10376849;28;20478;-72
2023/05/13 17:57:44;;;;;;;5.53;2.95;;;;;;;13.17;74.29;100766.91;10393931;28;20148;-72
2023/05/13 18:02:44;;;;;;;5.90;2.78;;;;;;;13.06;74.73;100760.09;10373794;28;20052;-71
2023/05/13 18:07:45;;;;;;;5.43;2.80;;;;;;;13.10;75.18;100760.56;10375478;28;20529;-71
2023/05/13 18:12:46;;;;;;;5.22;2.70;;;;;;;13.00;75.49;100768.78;10411246;28;20051;-71
2023/05/13 18:17:47;;;;;;;4.72;2.90;;;;;;;12.91;76.15;100760.00;10386328;28;20038;-70
2023/05/13 18:22:48;;;;;;;4.50;2.85;;;;;;;12.45;77.50;100687.88;10400646;28;20090;-70
2023/05/13 18:27:49;;;;;;;5.68;2.90;;;;;;;12.95;78.10;100773.81;10384719;28;20045;-71
2023/05/13 18:32:50;;;;;;;4.10;2.85;;;;;;;12.46;78.79;100699.38;10373488;28;20487;-71
2023/05/13 18:37:51;;;;;;;6.00;2.97;;;;;;;12.82;79.70;100749.53;10384065;28;20058;-71
2023/05/13 18:42:52;;;;;;;5.97;3.10;;;;;;;12.82;80.43;100757.53;10378480;28;20051;-71
2023/05/13 18:47:52;;;;;;;7.95;2.95;;;;;;;12.68;81.45;100735.09;10388464;28;20133;-71
2023/05/13 18:52:53;;;;;;;4.80;2.83;;;;;;;12.88;81.77;100764.84;10412702;28;20088;-71
2023/05/13 18:57:54;;;;;;;6.38;2.70;;;;;;;12.85;81.89;100763.34;10395739;28;20054;-71
2023/05/13 19:02:55;;;;;;;4.10;2.88;;;;;;;12.85;82.17;100762.53;10370332;28;20073;-71
2023/05/13 19:07:56;;;;;;;4.68;3.00;;;;;;;12.73;83.28;100752.22;10371930;28;20075;-71
2023/05/13 19:12:56;;;;;;;16.42;8.07;;;;;;;12.82;85.92;100757.53;10371939;28;20037;-71
2023/05/13 19:17:57;;;;;;;64.15;25.80;;;;;;;12.57;87.96;100738.97;10372018;28;20061;-71
2023/05/13 19:22:58;;;;;;;299.33;99.38;;;;;;;12.27;89.77;100721.91;10372003;28;20038;-72
2023/05/13 19:27:59;;;;;;;68.80;26.15;;;;;;;12.37;91.09;100754.50;10370325;28;20052;-73
2023/05/13 19:32:59;;;;;;;32.97;15.75;;;;;;;12.18;92.10;100753.03;10371727;28;20067;-73
2023/05/13 19:38:01;;;;;;;49.90;19.23;;;;;;;12.28;92.95;100759.00;10371005;28;20045;-72
2023/05/13 19:43:02;;;;;;;28.73;12.18;;;;;;;12.32;93.61;100760.34;10371592;28;20375;-73
2023/05/13 19:48:02;;;;;;;13.00;5.63;;;;;;;12.36;94.47;100758.19;10382222;28;20038;-72
2023/05/13 19:53:03;;;;;;;8.93;5.10;;;;;;;11.46;94.22;100610.97;10372523;28;20045;-73
2023/05/13 19:58:04;;;;;;;12.60;4.88;;;;;;;11.76;94.67;100674.19;10400477;28;20054;-72
2023/05/13 20:03:05;;;;;;;5.75;4.28;;;;;;;11.82;94.36;100684.16;10417029;28;20075;-72
2023/05/13 20:08:06;;;;;;;6.55;3.88;;;;;;;12.22;94.47;100759.69;10379626;28;20038;-72
2023/05/13 20:13:06;;;;;;;4.85;3.53;;;;;;;12.14;94.34;100743.72;10378487;28;20521;-72
2023/05/13 20:18:07;;;;;;;5.78;3.92;;;;;;;11.82;93.40;100672.69;10378574;28;20081;-72
2023/05/13 20:23:08;;;;;;;8.77;4.10;;;;;;;12.32;93.90;100755.03;10377420;28;20088;-71
2023/05/13 20:28:09;;;;;;;10.98;4.85;;;;;;;12.33;94.04;100758.50;10376950;28;20037;-72
2023/05/13 20:33:09;;;;;;;7.82;5.03;;;;;;;11.83;94.90;100683.13;10376995;28;20099;-72
2023/05/13 20:38:10;;;;;;;8.75;5.05;;;;;;;11.83;95.29;100685.81;10377650;28;20145;-72
2023/05/13 20:43:11;;;;;;;11.48;6.25;;;;;;;12.17;96.00;100751.34;10376976;28;20493;-72
2023/05/13 20:48:12;;;;;;;9.75;6.25;;;;;;;12.21;96.55;100749.22;10376724;28;20042;-72
2023/05/13 20:53:13;;;;;;;17.50;8.07;;;;;;;12.21;97.45;100747.38;10377883;28;20490;-72
2023/05/13 20:58:15;;;;;;;33.75;11.43;;;;;;;12.12;97.72;100732.41;10375908;28;20054;-72
2023/05/13 21:03:16;;;;;;;9.23;5.30;;;;;;;12.12;97.96;100735.06;10376079;28;20132;-72
2023/05/13 21:08:17;;;;;;;6.70;4.50;;;;;;;12.13;98.73;100731.41;10377134;28;20470;-72
2023/05/13 21:13:17;;;;;;;9.15;5.35;;;;;;;12.15;98.81;100728.59;10375404;28;20072;-71
2023/05/13 21:18:18;;;;;;;15.45;6.78;;;;;;;12.17;99.33;100734.56;10375094;28;20049;-72
2023/05/13 21:23:19;;;;;;;16.33;7.35;;;;;;;12.06;99.88;100717.09;10375272;28;20042;-72
2023/05/13 21:28:21;;;;;;;6.18;4.15;;;;;;;12.09;100.00;100730.09;10374524;28;20111;-71
2023/05/13 21:33:22;;;;;;;7.18;4.30;;;;;;;11.76;100.00;100668.84;10375158;28;20461;-71
2023/05/13 21:38:23;;;;;;;6.53;4.35;;;;;;;12.04;100.00;100706.63;10375033;28;20062;-72
2023/05/13 21:43:23;;;;;;;14.98;6.95;;;;;;;11.96;100.00;100687.97;10373928;28;20057;-72
2023/05/13 21:48:24;;;;;;;19.63;9.15;;;;;;;11.99;100.00;100698.28;10373937;28;20469;-72
2023/05/13 21:53:25;;;;;;;9.50;5.43;;;;;;;12.00;100.00;100705.28;10373755;28;20049;-71
2023/05/13 21:58:26;;;;;;;6.47;3.80;;;;;;;11.92;100.00;100685.84;10374851;28;20061;-72
2023/05/13 22:03:27;;;;;;;6.05;3.90;;;;;;;11.99;100.00;100689.47;10373370;28;20497;-72
2023/05/13 22:08:29;;;;;;;5.25;3.40;;;;;;;11.87;100.00;100681.81;10373237;28;20038;-72
2023/05/13 22:13:29;;;;;;;7.22;3.13;;;;;;;11.42;100.00;100600.66;10373577;28;20034;-72
2023/05/13 22:18:30;;;;;;;9.70;4.00;;;;;;;11.80;100.00;100648.06;10373777;28;20045;-72
2023/05/13 22:23:31;;;;;;;4.97;3.30;;;;;;;11.92;100.00;100669.84;10372678;28;20045;-72
2023/05/13 22:28:32;;;;;;;4.53;3.20;;;;;;;11.89;100.00;100663.03;10372367;28;20034;-72
2023/05/13 22:33:32;;;;;;;8.27;5.07;;;;;;;11.96;100.00;100661.34;10372709;28;20046;-72
2023/05/13 22:38:34;;;;;;;29.67;15.35;;;;;;;11.40;100.00;100576.09;10373068;28;20033;-71
2023/05/13 22:43:35;;;;;;;10.50;6.13;;;;;;;11.79;100.00;100649.06;10372913;28;20042;-72
2023/05/13 22:48:35;;;;;;;38.55;17.13;;;;;;;11.82;100.00;100651.38;10372443;28;20046;-72
2023/05/13 22:53:36;;;;;;;11.80;8.00;;;;;;;11.90;100.00;100656.72;10374436;28;20038;-71
2023/05/13 22:58:37;;;;;;;15.98;7.55;;;;;;;11.80;100.00;100640.06;10372620;28;20096;-72